sensor_id;sensor_type;location;lat;lon;timestamp;P1;durP1;ratioP1;P2;durP2;ratioP2
53072;SDS011;38955;48.916;2.336;2023-04-26T00:01:40;13.63;;;5.28;;
53072;SDS011;38955;48.916;2.336;2023-04-26T00:03:42;11.63;;;5.38;;
53072;SDS011;38955;48.916;2.336;2023-04-26T00:05:45;14.15;;;5.30;;
53072;SDS011;38955;48.916;2.336;2023-04-26T00:07:48;21.30;;;6.13;;
53072;SDS011;38955;48.916;2.336;2023-04-26T00:09:52;12.40;;;5.65;;
53072;SDS011;38955;48.916;2.336;2023-04-26T00:11:54;13.90;;;5.97;;
53072;SDS011;38955;48.916;2.336;2023-04-26T00:13:56;12.25;;;5.35;;
53072;SDS011;38955;48.916;2.336;2023-04-26T00:16:01;10.40;;;5.75;;
53072;SDS011;38955;48.916;2.336;2023-04-26T00:18:05;14.15;;;6.18;;
53072;SDS011;38955;48.916;2.336;2023-04-26T00:20:08;14.18;;;5.80;;
53072;SDS011;38955;48.916;2.336;2023-04-26T00:22:12;11.05;;;6.03;;
53072;SDS011;38955;48.916;2.336;2023-04-26T00:24:14;14.30;;;6.05;;
53072;SDS011;38955;48.916;2.336;2023-04-26T00:26:16;16.67;;;6.93;;
53072;SDS011;38955;48.916;2.336;2023-04-26T00:28:18;11.20;;;6.10;;
53072;SDS011;38955;48.916;2.336;2023-04-26T00:30:20;11.02;;;6.28;;
53072;SDS011;38955;48.916;2.336;2023-04-26T00:32:23;18.60;;;6.30;;
53072;SDS011;38955;48.916;2.336;2023-04-26T00:34:31;23.35;;;7.30;;
53072;SDS011;38955;48.916;2.336;2023-04-26T00:36:34;14.75;;;6.35;;
53072;SDS011;38955;48.916;2.336;2023-04-26T00:38:36;16.35;;;7.18;;
53072;SDS011;38955;48.916;2.336;2023-04-26T00:40:38;16.05;;;7.22;;
53072;SDS011;38955;48.916;2.336;2023-04-26T00:42:40;21.10;;;6.22;;
53072;SDS011;38955;48.916;2.336;2023-04-26T00:44:42;18.40;;;6.40;;
53072;SDS011;38955;48.916;2.336;2023-04-26T00:46:44;14.45;;;6.30;;
53072;SDS011;38955;48.916;2.336;2023-04-26T00:48:46;13.13;;;6.07;;
53072;SDS011;38955;48.916;2.336;2023-04-26T00:50:53;16.30;;;6.82;;
53072;SDS011;38955;48.916;2.336;2023-04-26T00:52:55;14.85;;;6.80;;
53072;SDS011;38955;48.916;2.336;2023-04-26T00:54:59;14.90;;;6.40;;
53072;SDS011;38955;48.916;2.336;2023-04-26T00:57:01;15.02;;;6.47;;
53072;SDS011;38955;48.916;2.336;2023-04-26T00:59:03;13.25;;;6.07;;
53072;SDS011;38955;48.916;2.336;2023-04-26T01:01:06;17.55;;;6.63;;
53072;SDS011;38955;48.916;2.336;2023-04-26T01:03:08;14.77;;;6.43;;
53072;SDS011;38955;48.916;2.336;2023-04-26T01:05:11;14.20;;;7.55;;
53072;SDS011;38955;48.916;2.336;2023-04-26T01:07:18;22.15;;;8.27;;
53072;SDS011;38955;48.916;2.336;2023-04-26T01:09:20;13.77;;;8.48;;
53072;SDS011;38955;48.916;2.336;2023-04-26T01:11:23;22.02;;;8.55;;
53072;SDS011;38955;48.916;2.336;2023-04-26T01:13:25;14.50;;;6.90;;
53072;SDS011;38955;48.916;2.336;2023-04-26T01:15:29;14.68;;;6.25;;
53072;SDS011;38955;48.916;2.336;2023-04-26T01:17:31;16.83;;;6.30;;
53072;SDS011;38955;48.916;2.336;2023-04-26T01:19:33;9.88;;;5.40;;
53072;SDS011;38955;48.916;2.336;2023-04-26T01:21:37;12.70;;;5.18;;
53072;SDS011;38955;48.916;2.336;2023-04-26T01:23:42;13.38;;;4.97;;
53072;SDS011;38955;48.916;2.336;2023-04-26T01:25:44;10.85;;;4.57;;
53072;SDS011;38955;48.916;2.336;2023-04-26T01:27:46;10.82;;;5.03;;
53072;SDS011;38955;48.916;2.336;2023-04-26T01:29:48;14.98;;;4.65;;
53072;SDS011;38955;48.916;2.336;2023-04-26T01:31:53;10.90;;;4.15;;
53072;SDS011;38955;48.916;2.336;2023-04-26T01:33:55;11.32;;;4.53;;
53072;SDS011;38955;48.916;2.336;2023-04-26T01:35:57;14.07;;;4.95;;
53072;SDS011;38955;48.916;2.336;2023-04-26T01:37:59;9.18;;;4.88;;
53072;SDS011;38955;48.916;2.336;2023-04-26T01:40:03;9.80;;;4.57;;
53072;SDS011;38955;48.916;2.336;2023-04-26T01:42:10;11.88;;;4.68;;
53072;SDS011;38955;48.916;2.336;2023-04-26T01:44:12;15.25;;;4.38;;
53072;SDS011;38955;48.916;2.336;2023-04-26T01:46:14;13.30;;;4.65;;
53072;SDS011;38955;48.916;2.336;2023-04-26T01:48:16;10.70;;;4.45;;
53072;SDS011;38955;48.916;2.336;2023-04-26T01:50:18;11.48;;;4.53;;
53072;SDS011;38955;48.916;2.336;2023-04-26T01:52:21;12.57;;;4.78;;
53072;SDS011;38955;48.916;2.336;2023-04-26T01:54:23;9.35;;;4.68;;
53072;SDS011;38955;48.916;2.336;2023-04-26T01:56:29;12.88;;;5.40;;
53072;SDS011;38955;48.916;2.336;2023-04-26T01:58:31;8.93;;;4.85;;
53072;SDS011;38955;48.916;2.336;2023-04-26T02:00:33;13.73;;;5.07;;
53072;SDS011;38955;48.916;2.336;2023-04-26T02:02:35;11.93;;;4.22;;
53072;SDS011;38955;48.916;2.336;2023-04-26T02:04:38;12.10;;;4.43;;
53072;SDS011;38955;48.916;2.336;2023-04-26T02:06:40;13.48;;;4.43;;
53072;SDS011;38955;48.916;2.336;2023-04-26T02:08:44;13.02;;;4.63;;
53072;SDS011;38955;48.916;2.336;2023-04-26T02:10:46;17.25;;;4.97;;
53072;SDS011;38955;48.916;2.336;2023-04-26T02:12:49;10.20;;;4.60;;
53072;SDS011;38955;48.916;2.336;2023-04-26T02:14:51;12.63;;;4.50;;
53072;SDS011;38955;48.916;2.336;2023-04-26T02:16:54;11.43;;;4.30;;
53072;SDS011;38955;48.916;2.336;2023-04-26T02:18:57;13.65;;;4.65;;
53072;SDS011;38955;48.916;2.336;2023-04-26T02:21:00;15.77;;;4.93;;
53072;SDS011;38955;48.916;2.336;2023-04-26T02:23:02;13.60;;;4.00;;
53072;SDS011;38955;48.916;2.336;2023-04-26T02:25:04;14.68;;;4.72;;
53072;SDS011;38955;48.916;2.336;2023-04-26T02:27:07;13.88;;;4.40;;
53072;SDS011;38955;48.916;2.336;2023-04-26T02:29:10;16.83;;;4.63;;
53072;SDS011;38955;48.916;2.336;2023-04-26T02:31:12;13.30;;;5.13;;
53072;SDS011;38955;48.916;2.336;2023-04-26T02:33:15;14.25;;;5.20;;
53072;SDS011;38955;48.916;2.336;2023-04-26T02:35:17;15.82;;;4.90;;
53072;SDS011;38955;48.916;2.336;2023-04-26T02:37:20;10.35;;;4.38;;
53072;SDS011;38955;48.916;2.336;2023-04-26T02:39:22;13.93;;;4.80;;
53072;SDS011;38955;48.916;2.336;2023-04-26T02:41:25;10.13;;;4.40;;
53072;SDS011;38955;48.916;2.336;2023-04-26T02:43:27;17.40;;;5.28;;
53072;SDS011;38955;48.916;2.336;2023-04-26T02:45:31;7.68;;;3.95;;
53072;SDS011;38955;48.916;2.336;2023-04-26T02:47:33;12.68;;;4.50;;
53072;SDS011;38955;48.916;2.336;2023-04-26T02:49:37;15.30;;;5.22;;
53072;SDS011;38955;48.916;2.336;2023-04-26T02:51:39;13.75;;;4.90;;
53072;SDS011;38955;48.916;2.336;2023-04-26T02:53:41;12.40;;;4.97;;
53072;SDS011;38955;48.916;2.336;2023-04-26T02:55:45;16.45;;;5.20;;
53072;SDS011;38955;48.916;2.336;2023-04-26T02:57:47;19.35;;;4.75;;
53072;SDS011;38955;48.916;2.336;2023-04-26T02:59:49;9.88;;;4.70;;
53072;SDS011;38955;48.916;2.336;2023-04-26T03:01:53;20.65;;;5.43;;
53072;SDS011;38955;48.916;2.336;2023-04-26T03:03:55;14.43;;;5.03;;
53072;SDS011;38955;48.916;2.336;2023-04-26T03:05:57;14.13;;;4.28;;
53072;SDS011;38955;48.916;2.336;2023-04-26T03:07:59;15.05;;;4.82;;
53072;SDS011;38955;48.916;2.336;2023-04-26T03:10:02;21.48;;;5.80;;
53072;SDS011;38955;48.916;2.336;2023-04-26T03:12:05;10.82;;;3.92;;
53072;SDS011;38955;48.916;2.336;2023-04-26T03:14:08;16.30;;;5.25;;
53072;SDS011;38955;48.916;2.336;2023-04-26T03:16:10;11.73;;;4.68;;
53072;SDS011;38955;48.916;2.336;2023-04-26T03:18:14;14.85;;;4.88;;
53072;SDS011;38955;48.916;2.336;2023-04-26T03:20:16;14.50;;;4.55;;
53072;SDS011;38955;48.916;2.336;2023-04-26T03:22:18;16.55;;;4.70;;
53072;SDS011;38955;48.916;2.336;2023-04-26T03:24:20;14.35;;;4.65;;
53072;SDS011;38955;48.916;2.336;2023-04-26T03:26:22;12.55;;;4.32;;
53072;SDS011;38955;48.916;2.336;2023-04-26T03:28:27;12.10;;;4.88;;
53072;SDS011;38955;48.916;2.336;2023-04-26T03:30:29;12.23;;;4.57;;
53072;SDS011;38955;48.916;2.336;2023-04-26T03:32:31;11.70;;;4.38;;
53072;SDS011;38955;48.916;2.336;2023-04-26T03:34:35;15.55;;;4.50;;
53072;SDS011;38955;48.916;2.336;2023-04-26T03:36:37;12.88;;;4.80;;
53072;SDS011;38955;48.916;2.336;2023-04-26T03:38:39;11.52;;;4.63;;
53072;SDS011;38955;48.916;2.336;2023-04-26T03:40:41;9.50;;;4.50;;
53072;SDS011;38955;48.916;2.336;2023-04-26T03:42:43;10.20;;;4.28;;
53072;SDS011;38955;48.916;2.336;2023-04-26T03:44:45;19.45;;;5.65;;
53072;SDS011;38955;48.916;2.336;2023-04-26T03:46:47;18.83;;;6.05;;
53072;SDS011;38955;48.916;2.336;2023-04-26T03:48:49;11.65;;;4.63;;
53072;SDS011;38955;48.916;2.336;2023-04-26T03:50:53;14.52;;;4.97;;
53072;SDS011;38955;48.916;2.336;2023-04-26T03:52:55;12.50;;;4.82;;
53072;SDS011;38955;48.916;2.336;2023-04-26T03:54:58;14.93;;;4.57;;
53072;SDS011;38955;48.916;2.336;2023-04-26T03:57:00;14.00;;;4.82;;
53072;SDS011;38955;48.916;2.336;2023-04-26T03:59:02;12.68;;;5.07;;
53072;SDS011;38955;48.916;2.336;2023-04-26T04:01:05;15.10;;;4.50;;
53072;SDS011;38955;48.916;2.336;2023-04-26T04:03:10;20.30;;;5.28;;
53072;SDS011;38955;48.916;2.336;2023-04-26T04:05:13;15.38;;;4.85;;
53072;SDS011;38955;48.916;2.336;2023-04-26T04:07:17;14.15;;;5.20;;
53072;SDS011;38955;48.916;2.336;2023-04-26T04:09:19;22.92;;;4.93;;
53072;SDS011;38955;48.916;2.336;2023-04-26T04:11:21;12.13;;;5.00;;
53072;SDS011;38955;48.916;2.336;2023-04-26T04:13:23;15.10;;;5.43;;
53072;SDS011;38955;48.916;2.336;2023-04-26T04:15:26;10.13;;;4.75;;
53072;SDS011;38955;48.916;2.336;2023-04-26T04:17:28;13.93;;;4.78;;
53072;SDS011;38955;48.916;2.336;2023-04-26T04:19:30;10.20;;;4.65;;
53072;SDS011;38955;48.916;2.336;2023-04-26T04:21:32;17.83;;;4.88;;
53072;SDS011;38955;48.916;2.336;2023-04-26T04:23:35;17.92;;;4.90;;
53072;SDS011;38955;48.916;2.336;2023-04-26T04:25:37;12.90;;;5.18;;
53072;SDS011;38955;48.916;2.336;2023-04-26T04:27:41;15.45;;;5.30;;
53072;SDS011;38955;48.916;2.336;2023-04-26T04:29:43;10.40;;;3.70;;
53072;SDS011;38955;48.916;2.336;2023-04-26T04:31:46;11.52;;;5.00;;
53072;SDS011;38955;48.916;2.336;2023-04-26T04:33:48;11.93;;;4.88;;
53072;SDS011;38955;48.916;2.336;2023-04-26T04:35:50;10.95;;;4.90;;
53072;SDS011;38955;48.916;2.336;2023-04-26T04:37:52;14.73;;;5.03;;
53072;SDS011;38955;48.916;2.336;2023-04-26T04:39:58;15.67;;;5.73;;
53072;SDS011;38955;48.916;2.336;2023-04-26T04:42:00;13.52;;;4.47;;
53072;SDS011;38955;48.916;2.336;2023-04-26T04:44:02;13.43;;;5.18;;
53072;SDS011;38955;48.916;2.336;2023-04-26T04:46:04;13.82;;;4.88;;
53072;SDS011;38955;48.916;2.336;2023-04-26T04:48:06;19.27;;;6.05;;
53072;SDS011;38955;48.916;2.336;2023-04-26T04:50:09;16.02;;;5.47;;
53072;SDS011;38955;48.916;2.336;2023-04-26T04:52:11;12.77;;;5.82;;
53072;SDS011;38955;48.916;2.336;2023-04-26T04:54:14;12.02;;;4.57;;
53072;SDS011;38955;48.916;2.336;2023-04-26T04:56:18;13.77;;;5.32;;
53072;SDS011;38955;48.916;2.336;2023-04-26T04:58:20;16.88;;;4.90;;
53072;SDS011;38955;48.916;2.336;2023-04-26T05:00:23;12.80;;;4.90;;
53072;SDS011;38955;48.916;2.336;2023-04-26T05:02:25;17.38;;;5.60;;
53072;SDS011;38955;48.916;2.336;2023-04-26T05:04:27;13.85;;;5.38;;
53072;SDS011;38955;48.916;2.336;2023-04-26T05:06:30;19.25;;;5.43;;
53072;SDS011;38955;48.916;2.336;2023-04-26T05:08:32;14.95;;;5.82;;
53072;SDS011;38955;48.916;2.336;2023-04-26T05:10:34;14.90;;;5.10;;
53072;SDS011;38955;48.916;2.336;2023-04-26T05:12:38;13.15;;;5.53;;
53072;SDS011;38955;48.916;2.336;2023-04-26T05:14:40;18.30;;;5.07;;
53072;SDS011;38955;48.916;2.336;2023-04-26T05:16:42;11.68;;;5.28;;
53072;SDS011;38955;48.916;2.336;2023-04-26T05:20:49;17.17;;;5.72;;
53072;SDS011;38955;48.916;2.336;2023-04-26T05:22:51;15.32;;;4.82;;
53072;SDS011;38955;48.916;2.336;2023-04-26T05:24:54;14.18;;;4.95;;
53072;SDS011;38955;48.916;2.336;2023-04-26T05:26:56;14.85;;;4.85;;
53072;SDS011;38955;48.916;2.336;2023-04-26T05:29:00;17.67;;;4.82;;
53072;SDS011;38955;48.916;2.336;2023-04-26T05:31:02;12.05;;;4.20;;
53072;SDS011;38955;48.916;2.336;2023-04-26T05:33:04;19.13;;;5.88;;
53072;SDS011;38955;48.916;2.336;2023-04-26T05:35:07;11.95;;;4.85;;
53072;SDS011;38955;48.916;2.336;2023-04-26T05:37:09;20.00;;;5.93;;
53072;SDS011;38955;48.916;2.336;2023-04-26T05:39:11;17.95;;;5.45;;
53072;SDS011;38955;48.916;2.336;2023-04-26T05:41:13;19.48;;;6.22;;
53072;SDS011;38955;48.916;2.336;2023-04-26T05:43:16;21.38;;;5.53;;
53072;SDS011;38955;48.916;2.336;2023-04-26T05:45:19;21.48;;;5.97;;
53072;SDS011;38955;48.916;2.336;2023-04-26T05:47:22;16.52;;;6.03;;
53072;SDS011;38955;48.916;2.336;2023-04-26T05:49:24;17.50;;;6.18;;
53072;SDS011;38955;48.916;2.336;2023-04-26T05:51:26;16.52;;;5.57;;
53072;SDS011;38955;48.916;2.336;2023-04-26T05:53:28;20.73;;;5.43;;
53072;SDS011;38955;48.916;2.336;2023-04-26T05:55:30;13.57;;;5.72;;
53072;SDS011;38955;48.916;2.336;2023-04-26T05:57:32;14.35;;;6.32;;
53072;SDS011;38955;48.916;2.336;2023-04-26T05:59:35;17.60;;;5.65;;
53072;SDS011;38955;48.916;2.336;2023-04-26T06:01:38;14.05;;;5.32;;
53072;SDS011;38955;48.916;2.336;2023-04-26T06:03:40;19.52;;;5.35;;
53072;SDS011;38955;48.916;2.336;2023-04-26T06:05:43;22.88;;;6.68;;
53072;SDS011;38955;48.916;2.336;2023-04-26T06:07:45;20.27;;;6.07;;
53072;SDS011;38955;48.916;2.336;2023-04-26T06:09:47;18.67;;;5.50;;
53072;SDS011;38955;48.916;2.336;2023-04-26T06:11:49;18.25;;;6.03;;
53072;SDS011;38955;48.916;2.336;2023-04-26T06:13:51;22.15;;;6.30;;
53072;SDS011;38955;48.916;2.336;2023-04-26T06:15:54;28.52;;;6.65;;
53072;SDS011;38955;48.916;2.336;2023-04-26T06:17:57;19.08;;;5.53;;
53072;SDS011;38955;48.916;2.336;2023-04-26T06:19:59;23.52;;;6.85;;
53072;SDS011;38955;48.916;2.336;2023-04-26T06:22:02;20.90;;;6.22;;
53072;SDS011;38955;48.916;2.336;2023-04-26T06:24:04;14.52;;;5.43;;
53072;SDS011;38955;48.916;2.336;2023-04-26T06:26:07;25.02;;;6.53;;
53072;SDS011;38955;48.916;2.336;2023-04-26T06:28:09;18.88;;;6.03;;
53072;SDS011;38955;48.916;2.336;2023-04-26T06:30:12;25.95;;;6.70;;
53072;SDS011;38955;48.916;2.336;2023-04-26T06:32:15;24.70;;;6.57;;
53072;SDS011;38955;48.916;2.336;2023-04-26T06:34:18;32.95;;;6.15;;
53072;SDS011;38955;48.916;2.336;2023-04-26T06:36:20;21.00;;;6.80;;
53072;SDS011;38955;48.916;2.336;2023-04-26T06:38:22;25.40;;;6.20;;
53072;SDS011;38955;48.916;2.336;2023-04-26T06:40:25;21.00;;;6.32;;
53072;SDS011;38955;48.916;2.336;2023-04-26T06:42:27;26.17;;;6.78;;
53072;SDS011;38955;48.916;2.336;2023-04-26T06:44:29;25.50;;;6.65;;
53072;SDS011;38955;48.916;2.336;2023-04-26T06:46:31;25.58;;;6.45;;
53072;SDS011;38955;48.916;2.336;2023-04-26T06:48:33;26.60;;;6.88;;
53072;SDS011;38955;48.916;2.336;2023-04-26T06:50:40;30.10;;;7.25;;
53072;SDS011;38955;48.916;2.336;2023-04-26T06:54:45;25.98;;;6.05;;
53072;SDS011;38955;48.916;2.336;2023-04-26T06:56:58;25.48;;;6.03;;
53072;SDS011;38955;48.916;2.336;2023-04-26T06:59:02;25.02;;;6.85;;
53072;SDS011;38955;48.916;2.336;2023-04-26T07:01:08;28.83;;;7.03;;
53072;SDS011;38955;48.916;2.336;2023-04-26T07:03:10;19.25;;;6.65;;
53072;SDS011;38955;48.916;2.336;2023-04-26T07:05:12;24.42;;;6.70;;
53072;SDS011;38955;48.916;2.336;2023-04-26T07:07:17;17.27;;;6.05;;
53072;SDS011;38955;48.916;2.336;2023-04-26T07:09:19;22.35;;;6.95;;
53072;SDS011;38955;48.916;2.336;2023-04-26T07:11:21;22.80;;;7.35;;
53072;SDS011;38955;48.916;2.336;2023-04-26T07:13:26;15.63;;;5.90;;
53072;SDS011;38955;48.916;2.336;2023-04-26T07:15:28;24.73;;;7.53;;
53072;SDS011;38955;48.916;2.336;2023-04-26T07:17:31;30.05;;;6.40;;
53072;SDS011;38955;48.916;2.336;2023-04-26T07:19:34;24.05;;;6.07;;
53072;SDS011;38955;48.916;2.336;2023-04-26T07:21:36;18.88;;;6.28;;
53072;SDS011;38955;48.916;2.336;2023-04-26T07:23:39;17.27;;;6.15;;
53072;SDS011;38955;48.916;2.336;2023-04-26T07:25:42;18.63;;;6.15;;
53072;SDS011;38955;48.916;2.336;2023-04-26T07:27:44;21.90;;;7.18;;
53072;SDS011;38955;48.916;2.336;2023-04-26T07:29:46;24.10;;;7.40;;
53072;SDS011;38955;48.916;2.336;2023-04-26T07:31:48;18.92;;;6.38;;
53072;SDS011;38955;48.916;2.336;2023-04-26T07:33:50;22.05;;;7.47;;
53072;SDS011;38955;48.916;2.336;2023-04-26T07:35:53;25.88;;;7.90;;
53072;SDS011;38955;48.916;2.336;2023-04-26T07:37:59;23.15;;;7.50;;
53072;SDS011;38955;48.916;2.336;2023-04-26T07:40:03;24.75;;;6.50;;
53072;SDS011;38955;48.916;2.336;2023-04-26T07:42:11;26.83;;;7.32;;
53072;SDS011;38955;48.916;2.336;2023-04-26T07:44:14;21.15;;;6.68;;
53072;SDS011;38955;48.916;2.336;2023-04-26T07:46:16;20.35;;;6.30;;
53072;SDS011;38955;48.916;2.336;2023-04-26T07:48:18;16.40;;;6.30;;
53072;SDS011;38955;48.916;2.336;2023-04-26T07:50:20;22.13;;;7.07;;
53072;SDS011;38955;48.916;2.336;2023-04-26T07:52:22;17.67;;;6.00;;
53072;SDS011;38955;48.916;2.336;2023-04-26T07:54:24;17.50;;;6.57;;
53072;SDS011;38955;48.916;2.336;2023-04-26T07:56:28;30.20;;;7.57;;
53072;SDS011;38955;48.916;2.336;2023-04-26T07:58:30;22.48;;;7.85;;
53072;SDS011;38955;48.916;2.336;2023-04-26T08:00:33;21.30;;;8.45;;
53072;SDS011;38955;48.916;2.336;2023-04-26T08:02:38;27.48;;;8.07;;
53072;SDS011;38955;48.916;2.336;2023-04-26T08:04:46;19.58;;;7.50;;
53072;SDS011;38955;48.916;2.336;2023-04-26T08:06:53;21.20;;;7.47;;
53072;SDS011;38955;48.916;2.336;2023-04-26T08:08:55;17.63;;;6.10;;
53072;SDS011;38955;48.916;2.336;2023-04-26T08:10:57;15.52;;;5.70;;
53072;SDS011;38955;48.916;2.336;2023-04-26T08:13:01;16.65;;;5.38;;
53072;SDS011;38955;48.916;2.336;2023-04-26T08:15:04;18.63;;;6.55;;
53072;SDS011;38955;48.916;2.336;2023-04-26T08:17:07;32.63;;;6.72;;
53072;SDS011;38955;48.916;2.336;2023-04-26T08:21:40;29.90;;;7.45;;
53072;SDS011;38955;48.916;2.336;2023-04-26T08:23:42;16.45;;;6.45;;
53072;SDS011;38955;48.916;2.336;2023-04-26T08:25:45;18.80;;;6.18;;
53072;SDS011;38955;48.916;2.336;2023-04-26T08:27:48;16.30;;;6.13;;
53072;SDS011;38955;48.916;2.336;2023-04-26T08:29:52;18.90;;;5.35;;
53072;SDS011;38955;48.916;2.336;2023-04-26T08:31:54;13.77;;;5.90;;
53072;SDS011;38955;48.916;2.336;2023-04-26T08:33:56;27.30;;;7.82;;
53072;SDS011;38955;48.916;2.336;2023-04-26T08:35:59;28.50;;;7.18;;
53072;SDS011;38955;48.916;2.336;2023-04-26T08:38:02;51.58;;;8.43;;
53072;SDS011;38955;48.916;2.336;2023-04-26T08:40:04;28.48;;;7.72;;
53072;SDS011;38955;48.916;2.336;2023-04-26T08:42:12;25.08;;;6.78;;
53072;SDS011;38955;48.916;2.336;2023-04-26T08:44:15;21.77;;;5.72;;
53072;SDS011;38955;48.916;2.336;2023-04-26T08:46:25;23.65;;;6.13;;
53072;SDS011;38955;48.916;2.336;2023-04-26T08:48:30;20.70;;;6.05;;
53072;SDS011;38955;48.916;2.336;2023-04-26T08:50:36;23.92;;;5.78;;
53072;SDS011;38955;48.916;2.336;2023-04-26T08:52:40;18.30;;;5.75;;
53072;SDS011;38955;48.916;2.336;2023-04-26T08:54:45;18.38;;;5.80;;
53072;SDS011;38955;48.916;2.336;2023-04-26T08:56:47;17.65;;;5.63;;
53072;SDS011;38955;48.916;2.336;2023-04-26T08:58:51;14.60;;;5.80;;
53072;SDS011;38955;48.916;2.336;2023-04-26T09:00:53;23.13;;;6.13;;
53072;SDS011;38955;48.916;2.336;2023-04-26T09:02:58;16.52;;;5.72;;
53072;SDS011;38955;48.916;2.336;2023-04-26T09:05:01;18.77;;;6.10;;
53072;SDS011;38955;48.916;2.336;2023-04-26T09:07:05;21.55;;;6.18;;
53072;SDS011;38955;48.916;2.336;2023-04-26T09:09:08;19.15;;;5.60;;
53072;SDS011;38955;48.916;2.336;2023-04-26T09:13:15;22.40;;;6.15;;
53072;SDS011;38955;48.916;2.336;2023-04-26T09:15:18;25.15;;;6.75;;
53072;SDS011;38955;48.916;2.336;2023-04-26T09:19:34;18.27;;;6.10;;
53072;SDS011;38955;48.916;2.336;2023-04-26T09:21:41;33.83;;;5.47;;
53072;SDS011;38955;48.916;2.336;2023-04-26T09:23:57;18.88;;;5.78;;
53072;SDS011;38955;48.916;2.336;2023-04-26T09:26:15;14.10;;;5.38;;
53072;SDS011;38955;48.916;2.336;2023-04-26T09:28:21;20.90;;;5.63;;
53072;SDS011;38955;48.916;2.336;2023-04-26T09:30:24;21.88;;;6.28;;
53072;SDS011;38955;48.916;2.336;2023-04-26T09:32:28;14.82;;;5.10;;
53072;SDS011;38955;48.916;2.336;2023-04-26T09:34:46;15.45;;;5.60;;
53072;SDS011;38955;48.916;2.336;2023-04-26T09:36:48;19.58;;;5.60;;
53072;SDS011;38955;48.916;2.336;2023-04-26T09:38:51;16.13;;;4.80;;
53072;SDS011;38955;48.916;2.336;2023-04-26T09:40:54;21.50;;;5.40;;
53072;SDS011;38955;48.916;2.336;2023-04-26T09:43:00;10.57;;;4.70;;
53072;SDS011;38955;48.916;2.336;2023-04-26T09:45:05;15.35;;;4.90;;
53072;SDS011;38955;48.916;2.336;2023-04-26T09:47:07;12.15;;;5.00;;
53072;SDS011;38955;48.916;2.336;2023-04-26T09:49:12;14.98;;;4.82;;
53072;SDS011;38955;48.916;2.336;2023-04-26T09:51:15;16.35;;;5.70;;
53072;SDS011;38955;48.916;2.336;2023-04-26T09:53:27;15.15;;;4.95;;
53072;SDS011;38955;48.916;2.336;2023-04-26T09:55:31;15.57;;;4.78;;
53072;SDS011;38955;48.916;2.336;2023-04-26T09:57:41;15.35;;;3.88;;
53072;SDS011;38955;48.916;2.336;2023-04-26T09:59:45;15.15;;;4.22;;
53072;SDS011;38955;48.916;2.336;2023-04-26T10:01:48;10.18;;;3.92;;
53072;SDS011;38955;48.916;2.336;2023-04-26T10:03:50;13.82;;;5.30;;
53072;SDS011;38955;48.916;2.336;2023-04-26T10:05:53;7.97;;;3.90;;
53072;SDS011;38955;48.916;2.336;2023-04-26T10:07:58;10.98;;;4.05;;
53072;SDS011;38955;48.916;2.336;2023-04-26T10:10:00;15.27;;;4.38;;
53072;SDS011;38955;48.916;2.336;2023-04-26T10:12:05;24.13;;;5.30;;
53072;SDS011;38955;48.916;2.336;2023-04-26T10:14:07;11.98;;;4.18;;
53072;SDS011;38955;48.916;2.336;2023-04-26T10:16:09;10.20;;;3.92;;
53072;SDS011;38955;48.916;2.336;2023-04-26T10:18:12;11.98;;;4.35;;
53072;SDS011;38955;48.916;2.336;2023-04-26T10:20:14;10.13;;;4.00;;
53072;SDS011;38955;48.916;2.336;2023-04-26T10:22:20;14.98;;;5.13;;
53072;SDS011;38955;48.916;2.336;2023-04-26T10:24:27;11.77;;;4.22;;
53072;SDS011;38955;48.916;2.336;2023-04-26T10:26:48;9.95;;;3.95;;
53072;SDS011;38955;48.916;2.336;2023-04-26T10:28:53;14.18;;;4.45;;
53072;SDS011;38955;48.916;2.336;2023-04-26T10:31:02;11.23;;;3.65;;
53072;SDS011;38955;48.916;2.336;2023-04-26T10:35:17;11.55;;;4.85;;
53072;SDS011;38955;48.916;2.336;2023-04-26T10:37:19;9.40;;;4.10;;
53072;SDS011;38955;48.916;2.336;2023-04-26T10:39:21;13.80;;;4.20;;
53072;SDS011;38955;48.916;2.336;2023-04-26T10:41:33;13.43;;;4.20;;
53072;SDS011;38955;48.916;2.336;2023-04-26T10:43:36;8.68;;;3.88;;
53072;SDS011;38955;48.916;2.336;2023-04-26T10:45:43;8.95;;;3.60;;
53072;SDS011;38955;48.916;2.336;2023-04-26T10:47:46;9.45;;;4.32;;
53072;SDS011;38955;48.916;2.336;2023-04-26T10:49:48;11.45;;;4.50;;
53072;SDS011;38955;48.916;2.336;2023-04-26T10:52:09;12.48;;;3.70;;
53072;SDS011;38955;48.916;2.336;2023-04-26T10:54:13;12.10;;;4.70;;
53072;SDS011;38955;48.916;2.336;2023-04-26T10:56:21;12.32;;;3.65;;
53072;SDS011;38955;48.916;2.336;2023-04-26T10:59:06;15.55;;;3.95;;
53072;SDS011;38955;48.916;2.336;2023-04-26T11:01:29;14.33;;;3.63;;
53072;SDS011;38955;48.916;2.336;2023-04-26T11:03:31;10.27;;;3.53;;
53072;SDS011;38955;48.916;2.336;2023-04-26T11:08:02;13.15;;;4.03;;
53072;SDS011;38955;48.916;2.336;2023-04-26T11:10:06;12.52;;;4.18;;
53072;SDS011;38955;48.916;2.336;2023-04-26T11:12:14;9.95;;;4.13;;
53072;SDS011;38955;48.916;2.336;2023-04-26T11:14:16;11.45;;;4.00;;
53072;SDS011;38955;48.916;2.336;2023-04-26T11:16:19;8.45;;;3.58;;
53072;SDS011;38955;48.916;2.336;2023-04-26T11:18:22;13.18;;;3.15;;
53072;SDS011;38955;48.916;2.336;2023-04-26T11:20:27;9.10;;;3.55;;
53072;SDS011;38955;48.916;2.336;2023-04-26T11:22:31;10.07;;;3.47;;
53072;SDS011;38955;48.916;2.336;2023-04-26T11:24:35;16.30;;;4.25;;
53072;SDS011;38955;48.916;2.336;2023-04-26T11:26:37;10.50;;;3.83;;
53072;SDS011;38955;48.916;2.336;2023-04-26T11:28:40;8.52;;;3.47;;
53072;SDS011;38955;48.916;2.336;2023-04-26T11:30:44;12.70;;;3.72;;
53072;SDS011;38955;48.916;2.336;2023-04-26T11:32:46;9.02;;;3.70;;
53072;SDS011;38955;48.916;2.336;2023-04-26T11:34:48;10.93;;;3.65;;
53072;SDS011;38955;48.916;2.336;2023-04-26T11:36:52;15.07;;;4.55;;
53072;SDS011;38955;48.916;2.336;2023-04-26T11:38:54;10.05;;;3.28;;
53072;SDS011;38955;48.916;2.336;2023-04-26T11:40:56;9.52;;;3.60;;
53072;SDS011;38955;48.916;2.336;2023-04-26T11:42:59;13.20;;;4.10;;
53072;SDS011;38955;48.916;2.336;2023-04-26T11:45:04;16.50;;;4.10;;
53072;SDS011;38955;48.916;2.336;2023-04-26T11:47:08;19.55;;;4.80;;
53072;SDS011;38955;48.916;2.336;2023-04-26T11:49:11;13.02;;;3.63;;
53072;SDS011;38955;48.916;2.336;2023-04-26T11:51:13;12.32;;;4.20;;
53072;SDS011;38955;48.916;2.336;2023-04-26T11:53:15;11.10;;;3.67;;
53072;SDS011;38955;48.916;2.336;2023-04-26T11:55:18;8.43;;;3.10;;
53072;SDS011;38955;48.916;2.336;2023-04-26T11:57:25;13.07;;;4.45;;
53072;SDS011;38955;48.916;2.336;2023-04-26T11:59:32;9.48;;;3.72;;
53072;SDS011;38955;48.916;2.336;2023-04-26T12:01:36;7.05;;;3.08;;
53072;SDS011;38955;48.916;2.336;2023-04-26T12:03:38;8.95;;;3.65;;
53072;SDS011;38955;48.916;2.336;2023-04-26T12:05:40;8.75;;;3.40;;
53072;SDS011;38955;48.916;2.336;2023-04-26T12:07:43;10.38;;;2.95;;
53072;SDS011;38955;48.916;2.336;2023-04-26T12:09:50;8.25;;;2.85;;
53072;SDS011;38955;48.916;2.336;2023-04-26T12:11:53;8.85;;;3.78;;
53072;SDS011;38955;48.916;2.336;2023-04-26T12:13:59;19.25;;;5.93;;
53072;SDS011;38955;48.916;2.336;2023-04-26T12:16:06;17.45;;;4.70;;
53072;SDS011;38955;48.916;2.336;2023-04-26T12:18:11;11.23;;;4.10;;
53072;SDS011;38955;48.916;2.336;2023-04-26T12:20:14;7.07;;;3.35;;
53072;SDS011;38955;48.916;2.336;2023-04-26T12:22:19;7.95;;;3.33;;
53072;SDS011;38955;48.916;2.336;2023-04-26T12:24:25;9.00;;;3.60;;
53072;SDS011;38955;48.916;2.336;2023-04-26T12:26:42;9.13;;;3.50;;
53072;SDS011;38955;48.916;2.336;2023-04-26T12:30:47;7.28;;;3.45;;
53072;SDS011;38955;48.916;2.336;2023-04-26T12:32:50;10.30;;;3.63;;